sensor_id;sensor_type;location;lat;lon;timestamp;temperature;humidity
68977;SHT31;56029;52.568;13.588;2023-09-08T00:01:04;15.38;90.20
68977;SHT31;56029;52.568;13.588;2023-09-08T00:03:31;15.35;89.80
68977;SHT31;56029;52.568;13.588;2023-09-08T00:05:56;15.28;90.10
68977;SHT31;56029;52.568;13.588;2023-09-08T00:08:22;15.21;89.93
68977;SHT31;56029;52.568;13.588;2023-09-08T00:10:47;15.16;90.11
68977;SHT31;56029;52.568;13.588;2023-09-08T00:13:13;15.14;89.92
68977;SHT31;56029;52.568;13.588;2023-09-08T00:15:38;15.10;89.57
68977;SHT31;56029;52.568;13.588;2023-09-08T00:18:04;15.06;89.92
68977;SHT31;56029;52.568;13.588;2023-09-08T00:20:30;15.07;89.86
68977;SHT31;56029;52.568;13.588;2023-09-08T00:22:58;15.06;89.84
68977;SHT31;56029;52.568;13.588;2023-09-08T00:25:24;15.04;90.36
68977;SHT31;56029;52.568;13.588;2023-09-08T00:27:49;15.00;91.21
68977;SHT31;56029;52.568;13.588;2023-09-08T00:30:15;15.02;91.00
68977;SHT31;56029;52.568;13.588;2023-09-08T00:32:40;15.03;91.24
68977;SHT31;56029;52.568;13.588;2023-09-08T00:35:07;14.99;91.62
68977;SHT31;56029;52.568;13.588;2023-09-08T00:37:35;14.99;90.96
68977;SHT31;56029;52.568;13.588;2023-09-08T00:40:00;14.86;91.11
68977;SHT31;56029;52.568;13.588;2023-09-08T00:42:26;14.71;90.94
68977;SHT31;56029;52.568;13.588;2023-09-08T00:44:51;14.59;91.23
68977;SHT31;56029;52.568;13.588;2023-09-08T00:47:20;14.51;91.44
68977;SHT31;56029;52.568;13.588;2023-09-08T00:49:45;14.45;91.73
68977;SHT31;56029;52.568;13.588;2023-09-08T00:52:11;14.46;91.78
68977;SHT31;56029;52.568;13.588;2023-09-08T00:54:37;14.45;91.49
68977;SHT31;56029;52.568;13.588;2023-09-08T00:57:02;14.48;91.41
68977;SHT31;56029;52.568;13.588;2023-09-08T00:59:32;14.49;90.98
68977;SHT31;56029;52.568;13.588;2023-09-08T01:02:01;14.46;91.39
68977;SHT31;56029;52.568;13.588;2023-09-08T01:04:30;14.49;91.89
68977;SHT31;56029;52.568;13.588;2023-09-08T01:06:56;14.49;91.80
68977;SHT31;56029;52.568;13.588;2023-09-08T01:09:23;14.49;92.10
68977;SHT31;56029;52.568;13.588;2023-09-08T01:11:49;14.51;91.96
68977;SHT31;56029;52.568;13.588;2023-09-08T01:14:17;14.49;92.47
68977;SHT31;56029;52.568;13.588;2023-09-08T01:16:43;14.49;92.18
68977;SHT31;56029;52.568;13.588;2023-09-08T01:19:13;14.51;92.21
68977;SHT31;56029;52.568;13.588;2023-09-08T01:21:58;14.51;92.14
68977;SHT31;56029;52.568;13.588;2023-09-08T01:27:12;14.44;92.15
68977;SHT31;56029;52.568;13.588;2023-09-08T01:29:40;14.39;91.76
68977;SHT31;56029;52.568;13.588;2023-09-08T01:32:07;14.38;91.63
68977;SHT31;56029;52.568;13.588;2023-09-08T01:34:35;14.35;91.73
68977;SHT31;56029;52.568;13.588;2023-09-08T01:37:01;14.32;91.91
68977;SHT31;56029;52.568;13.588;2023-09-08T01:39:26;14.29;91.79
68977;SHT31;56029;52.568;13.588;2023-09-08T01:41:52;14.27;91.67
68977;SHT31;56029;52.568;13.588;2023-09-08T01:44:17;14.29;91.57
68977;SHT31;56029;52.568;13.588;2023-09-08T01:46:46;14.25;91.51
68977;SHT31;56029;52.568;13.588;2023-09-08T01:49:11;14.21;91.74
68977;SHT31;56029;52.568;13.588;2023-09-08T01:51:37;14.17;91.90
68977;SHT31;56029;52.568;13.588;2023-09-08T01:54:02;14.20;91.70
68977;SHT31;56029;52.568;13.588;2023-09-08T01:56:28;14.17;91.67
68977;SHT31;56029;52.568;13.588;2023-09-08T01:58:53;14.15;91.61
68977;SHT31;56029;52.568;13.588;2023-09-08T02:01:19;14.13;91.68
68977;SHT31;56029;52.568;13.588;2023-09-08T02:03:44;14.10;91.54
68977;SHT31;56029;52.568;13.588;2023-09-08T02:06:10;14.08;91.60
68977;SHT31;56029;52.568;13.588;2023-09-08T02:08:36;14.07;91.62
68977;SHT31;56029;52.568;13.588;2023-09-08T02:11:01;14.04;91.78
68977;SHT31;56029;52.568;13.588;2023-09-08T02:13:27;13.98;91.85
68977;SHT31;56029;52.568;13.588;2023-09-08T02:15:52;13.98;92.12
68977;SHT31;56029;52.568;13.588;2023-09-08T02:18:18;13.94;92.20
68977;SHT31;56029;52.568;13.588;2023-09-08T02:20:43;13.94;92.22
68977;SHT31;56029;52.568;13.588;2023-09-08T02:23:09;13.96;92.32
68977;SHT31;56029;52.568;13.588;2023-09-08T02:25:35;13.94;92.59
68977;SHT31;56029;52.568;13.588;2023-09-08T02:28:00;13.91;92.96
68977;SHT31;56029;52.568;13.588;2023-09-08T02:30:26;13.94;92.87
68977;SHT31;56029;52.568;13.588;2023-09-08T02:32:51;13.88;92.52
68977;SHT31;56029;52.568;13.588;2023-09-08T02:35:17;13.86;92.58
68977;SHT31;56029;52.568;13.588;2023-09-08T02:37:42;13.94;93.82
68977;SHT31;56029;52.568;13.588;2023-09-08T02:40:08;14.00;94.18
68977;SHT31;56029;52.568;13.588;2023-09-08T02:42:33;13.98;93.78
68977;SHT31;56029;52.568;13.588;2023-09-08T02:44:59;14.00;93.62
68977;SHT31;56029;52.568;13.588;2023-09-08T02:47:24;14.01;93.55
68977;SHT31;56029;52.568;13.588;2023-09-08T02:49:50;14.06;93.46
68977;SHT31;56029;52.568;13.588;2023-09-08T02:52:16;14.00;93.35
68977;SHT31;56029;52.568;13.588;2023-09-08T02:54:41;13.98;93.53
68977;SHT31;56029;52.568;13.588;2023-09-08T02:57:07;14.01;93.39
68977;SHT31;56029;52.568;13.588;2023-09-08T02:59:32;13.97;93.57
68977;SHT31;56029;52.568;13.588;2023-09-08T03:01:59;13.98;93.49
68977;SHT31;56029;52.568;13.588;2023-09-08T03:04:25;13.98;93.21
68977;SHT31;56029;52.568;13.588;2023-09-08T03:06:50;13.97;93.15
68977;SHT31;56029;52.568;13.588;2023-09-08T03:09:16;13.94;93.27
68977;SHT31;56029;52.568;13.588;2023-09-08T03:11:41;13.94;93.42
68977;SHT31;56029;52.568;13.588;2023-09-08T03:14:07;13.88;93.55
68977;SHT31;56029;52.568;13.588;2023-09-08T03:16:32;13.88;93.91
68977;SHT31;56029;52.568;13.588;2023-09-08T03:18:58;13.93;93.85
68977;SHT31;56029;52.568;13.588;2023-09-08T03:21:23;13.93;93.91
68977;SHT31;56029;52.568;13.588;2023-09-08T03:23:49;13.90;93.80
68977;SHT31;56029;52.568;13.588;2023-09-08T03:26:14;13.87;93.65
68977;SHT31;56029;52.568;13.588;2023-09-08T03:28:42;13.83;93.34
68977;SHT31;56029;52.568;13.588;2023-09-08T03:31:10;13.81;93.55
68977;SHT31;56029;52.568;13.588;2023-09-08T03:33:36;13.78;93.71
68977;SHT31;56029;52.568;13.588;2023-09-08T03:36:01;13.76;93.56
68977;SHT31;56029;52.568;13.588;2023-09-08T03:38:27;13.70;93.58
68977;SHT31;56029;52.568;13.588;2023-09-08T03:40:53;13.74;93.58
68977;SHT31;56029;52.568;13.588;2023-09-08T03:43:18;13.74;93.59
68977;SHT31;56029;52.568;13.588;2023-09-08T03:45:44;13.67;93.35
68977;SHT31;56029;52.568;13.588;2023-09-08T03:48:09;13.66;94.22
68977;SHT31;56029;52.568;13.588;2023-09-08T03:50:35;13.66;94.26
68977;SHT31;56029;52.568;13.588;2023-09-08T03:53:00;13.65;93.68
68977;SHT31;56029;52.568;13.588;2023-09-08T03:55:26;13.59;93.40
68977;SHT31;56029;52.568;13.588;2023-09-08T03:57:52;13.59;93.24
68977;SHT31;56029;52.568;13.588;2023-09-08T04:00:18;13.55;93.40
68977;SHT31;56029;52.568;13.588;2023-09-08T04:02:44;13.55;93.48
68977;SHT31;56029;52.568;13.588;2023-09-08T04:05:10;13.53;93.32
68977;SHT31;56029;52.568;13.588;2023-09-08T04:07:35;13.52;93.08
68977;SHT31;56029;52.568;13.588;2023-09-08T04:10:01;13.43;93.13
68977;SHT31;56029;52.568;13.588;2023-09-08T04:12:26;13.32;93.34
68977;SHT31;56029;52.568;13.588;2023-09-08T04:14:52;13.26;93.57
68977;SHT31;56029;52.568;13.588;2023-09-08T04:17:18;13.23;93.90
68977;SHT31;56029;52.568;13.588;2023-09-08T04:19:43;13.22;93.94
68977;SHT31;56029;52.568;13.588;2023-09-08T04:22:09;13.18;94.14
68977;SHT31;56029;52.568;13.588;2023-09-08T04:24:36;13.18;94.03
68977;SHT31;56029;52.568;13.588;2023-09-08T04:27:01;13.16;94.10
68977;SHT31;56029;52.568;13.588;2023-09-08T04:29:27;13.14;94.10
68977;SHT31;56029;52.568;13.588;2023-09-08T04:31:52;13.18;93.98
68977;SHT31;56029;52.568;13.588;2023-09-08T04:34:18;13.16;94.14
68977;SHT31;56029;52.568;13.588;2023-09-08T04:36:43;13.11;94.14
68977;SHT31;56029;52.568;13.588;2023-09-08T04:39:09;13.09;93.91
68977;SHT31;56029;52.568;13.588;2023-09-08T04:41:34;13.11;93.87
68977;SHT31;56029;52.568;13.588;2023-09-08T04:44:00;13.11;93.90
68977;SHT31;56029;52.568;13.588;2023-09-08T04:46:25;13.15;93.85
68977;SHT31;56029;52.568;13.588;2023-09-08T04:48:51;13.18;93.72
68977;SHT31;56029;52.568;13.588;2023-09-08T04:51:16;13.22;93.90
68977;SHT31;56029;52.568;13.588;2023-09-08T04:53:42;13.23;93.92
68977;SHT31;56029;52.568;13.588;2023-09-08T04:56:07;13.23;93.78
68977;SHT31;56029;52.568;13.588;2023-09-08T04:58:33;13.26;93.93
68977;SHT31;56029;52.568;13.588;2023-09-08T05:00:58;13.23;94.02
68977;SHT31;56029;52.568;13.588;2023-09-08T05:03:24;13.25;94.23
68977;SHT31;56029;52.568;13.588;2023-09-08T05:05:49;13.26;94.26
68977;SHT31;56029;52.568;13.588;2023-09-08T05:08:15;13.32;94.26
68977;SHT31;56029;52.568;13.588;2023-09-08T05:10:41;13.38;94.56
68977;SHT31;56029;52.568;13.588;2023-09-08T05:13:06;13.45;94.76
68977;SHT31;56029;52.568;13.588;2023-09-08T05:15:32;13.53;94.33
68977;SHT31;56029;52.568;13.588;2023-09-08T05:17:57;13.65;95.05
68977;SHT31;56029;52.568;13.588;2023-09-08T05:20:23;13.73;94.90
68977;SHT31;56029;52.568;13.588;2023-09-08T05:22:48;13.84;95.12
68977;SHT31;56029;52.568;13.588;2023-09-08T05:25:14;13.94;95.15
68977;SHT31;56029;52.568;13.588;2023-09-08T05:27:39;14.07;95.42
68977;SHT31;56029;52.568;13.588;2023-09-08T05:30:05;14.20;95.73
68977;SHT31;56029;52.568;13.588;2023-09-08T05:32:31;14.36;95.49
68977;SHT31;56029;52.568;13.588;2023-09-08T05:34:57;14.49;95.81
68977;SHT31;56029;52.568;13.588;2023-09-08T05:37:25;14.62;95.66
68977;SHT31;56029;52.568;13.588;2023-09-08T05:39:50;14.73;95.76
68977;SHT31;56029;52.568;13.588;2023-09-08T05:42:16;14.90;95.46
68977;SHT31;56029;52.568;13.588;2023-09-08T05:44:41;15.08;95.15
68977;SHT31;56029;52.568;13.588;2023-09-08T05:47:07;15.16;94.92
68977;SHT31;56029;52.568;13.588;2023-09-08T05:49:32;15.30;94.45
68977;SHT31;56029;52.568;13.588;2023-09-08T05:51:58;15.44;94.24
68977;SHT31;56029;52.568;13.588;2023-09-08T05:54:24;15.54;93.89
68977;SHT31;56029;52.568;13.588;2023-09-08T05:56:49;15.68;93.60
68977;SHT31;56029;52.568;13.588;2023-09-08T05:59:15;15.78;93.50
68977;SHT31;56029;52.568;13.588;2023-09-08T06:01:41;15.91;92.99
68977;SHT31;56029;52.568;13.588;2023-09-08T06:04:06;16.05;92.68
68977;SHT31;56029;52.568;13.588;2023-09-08T06:06:32;16.10;92.76
68977;SHT31;56029;52.568;13.588;2023-09-08T06:08:57;16.20;92.49
68977;SHT31;56029;52.568;13.588;2023-09-08T06:11:23;16.31;92.22
68977;SHT31;56029;52.568;13.588;2023-09-08T06:13:48;16.39;92.12
68977;SHT31;56029;52.568;13.588;2023-09-08T06:16:14;16.49;92.05
68977;SHT31;56029;52.568;13.588;2023-09-08T06:18:40;16.54;91.98
68977;SHT31;56029;52.568;13.588;2023-09-08T06:21:06;16.60;91.50
68977;SHT31;56029;52.568;13.588;2023-09-08T06:23:33;16.71;91.08
68977;SHT31;56029;52.568;13.588;2023-09-08T06:25:58;16.81;91.29
68977;SHT31;56029;52.568;13.588;2023-09-08T06:28:27;16.88;90.79
68977;SHT31;56029;52.568;13.588;2023-09-08T06:30:53;16.99;90.76
68977;SHT31;56029;52.568;13.588;2023-09-08T06:33:18;17.05;90.31
68977;SHT31;56029;52.568;13.588;2023-09-08T06:35:45;17.16;90.29
68977;SHT31;56029;52.568;13.588;2023-09-08T06:38:11;17.28;89.54
68977;SHT31;56029;52.568;13.588;2023-09-08T06:40:36;17.37;89.28
68977;SHT31;56029;52.568;13.588;2023-09-08T06:43:02;17.46;89.27
68977;SHT31;56029;52.568;13.588;2023-09-08T06:45:28;17.54;88.89
68977;SHT31;56029;52.568;13.588;2023-09-08T06:47:53;17.65;88.54
68977;SHT31;56029;52.568;13.588;2023-09-08T06:50:19;17.77;88.35
68977;SHT31;56029;52.568;13.588;2023-09-08T06:52:44;17.87;87.43
68977;SHT31;56029;52.568;13.588;2023-09-08T06:55:10;17.95;87.68
68977;SHT31;56029;52.568;13.588;2023-09-08T06:57:35;18.12;87.44
68977;SHT31;56029;52.568;13.588;2023-09-08T07:00:01;18.24;87.38
68977;SHT31;56029;52.568;13.588;2023-09-08T07:02:27;18.41;86.46
68977;SHT31;56029;52.568;13.588;2023-09-08T07:04:53;18.56;85.60
68977;SHT31;56029;52.568;13.588;2023-09-08T07:07:18;18.66;85.53
68977;SHT31;56029;52.568;13.588;2023-09-08T07:09:44;18.79;85.41
68977;SHT31;56029;52.568;13.588;2023-09-08T07:12:09;18.90;84.52
68977;SHT31;56029;52.568;13.588;2023-09-08T07:14:35;19.04;84.24
68977;SHT31;56029;52.568;13.588;2023-09-08T07:17:00;19.15;83.94
68977;SHT31;56029;52.568;13.588;2023-09-08T07:19:27;19.24;83.15
68977;SHT31;56029;52.568;13.588;2023-09-08T07:21:52;19.36;83.02
68977;SHT31;56029;52.568;13.588;2023-09-08T07:24:18;19.51;82.16
68977;SHT31;56029;52.568;13.588;2023-09-08T07:26:43;19.61;81.87
68977;SHT31;56029;52.568;13.588;2023-09-08T07:29:09;19.69;81.88
68977;SHT31;56029;52.568;13.588;2023-09-08T07:31:34;19.83;82.10
68977;SHT31;56029;52.568;13.588;2023-09-08T07:34:00;20.02;80.51
68977;SHT31;56029;52.568;13.588;2023-09-08T07:36:25;20.14;80.21
68977;SHT31;56029;52.568;13.588;2023-09-08T07:38:51;20.30;79.51
68977;SHT31;56029;52.568;13.588;2023-09-08T07:41:16;20.38;79.43
68977;SHT31;56029;52.568;13.588;2023-09-08T07:43:42;20.48;79.38
68977;SHT31;56029;52.568;13.588;2023-09-08T07:46:07;20.58;79.08
68977;SHT31;56029;52.568;13.588;2023-09-08T07:48:35;20.71;78.99
68977;SHT31;56029;52.568;13.588;2023-09-08T07:51:01;20.82;78.32
68977;SHT31;56029;52.568;13.588;2023-09-08T07:53:27;20.94;78.06
68977;SHT31;56029;52.568;13.588;2023-09-08T07:55:55;20.98;77.41
68977;SHT31;56029;52.568;13.588;2023-09-08T07:58:22;21.08;76.89
68977;SHT31;56029;52.568;13.588;2023-09-08T08:00:47;21.20;76.35
68977;SHT31;56029;52.568;13.588;2023-09-08T08:03:13;21.33;76.76
68977;SHT31;56029;52.568;13.588;2023-09-08T08:05:38;21.40;76.75
68977;SHT31;56029;52.568;13.588;2023-09-08T08:08:04;21.53;76.69
68977;SHT31;56029;52.568;13.588;2023-09-08T08:10:30;21.66;75.30
68977;SHT31;56029;52.568;13.588;2023-09-08T08:12:55;21.81;74.79
68977;SHT31;56029;52.568;13.588;2023-09-08T08:15:35;21.94;74.54
68977;SHT31;56029;52.568;13.588;2023-09-08T08:18:01;22.12;73.93
68977;SHT31;56029;52.568;13.588;2023-09-08T08:20:26;22.16;73.81
68977;SHT31;56029;52.568;13.588;2023-09-08T08:22:52;22.24;73.41
68977;SHT31;56029;52.568;13.588;2023-09-08T08:25:17;22.36;73.70
68977;SHT31;56029;52.568;13.588;2023-09-08T08:27:43;22.52;72.40
68977;SHT31;56029;52.568;13.588;2023-09-08T08:30:09;22.60;72.45
68977;SHT31;56029;52.568;13.588;2023-09-08T08:32:35;22.73;71.78
68977;SHT31;56029;52.568;13.588;2023-09-08T08:35:00;22.74;71.77
68977;SHT31;56029;52.568;13.588;2023-09-08T08:37:26;22.79;71.94
68977;SHT31;56029;52.568;13.588;2023-09-08T08:39:52;22.90;71.85
68977;SHT31;56029;52.568;13.588;2023-09-08T08:42:18;23.07;71.84
68977;SHT31;56029;52.568;13.588;2023-09-08T08:44:44;23.17;70.52
68977;SHT31;56029;52.568;13.588;2023-09-08T08:47:10;23.27;70.10
68977;SHT31;56029;52.568;13.588;2023-09-08T08:49:36;23.34;69.85
68977;SHT31;56029;52.568;13.588;2023-09-08T08:52:05;23.45;69.75
68977;SHT31;56029;52.568;13.588;2023-09-08T08:54:31;23.58;69.34
68977;SHT31;56029;52.568;13.588;2023-09-08T08:56:57;23.65;70.01
68977;SHT31;56029;52.568;13.588;2023-09-08T08:59:22;23.75;69.63
68977;SHT31;56029;52.568;13.588;2023-09-08T09:01:48;23.88;69.89
68977;SHT31;56029;52.568;13.588;2023-09-08T09:04:15;23.99;68.26
68977;SHT31;56029;52.568;13.588;2023-09-08T09:06:41;24.02;69.02
68977;SHT31;56029;52.568;13.588;2023-09-08T09:09:07;24.05;69.09
68977;SHT31;56029;52.568;13.588;2023-09-08T09:11:33;24.12;68.84
68977;SHT31;56029;52.568;13.588;2023-09-08T09:13:58;24.19;68.91
68977;SHT31;56029;52.568;13.588;2023-09-08T09:16:24;24.27;67.57
68977;SHT31;56029;52.568;13.588;2023-09-08T09:18:57;24.33;67.36
68977;SHT31;56029;52.568;13.588;2023-09-08T09:21:24;24.40;67.28
68977;SHT31;56029;52.568;13.588;2023-09-08T09:23:50;24.50;67.99
68977;SHT31;56029;52.568;13.588;2023-09-08T09:26:27;24.67;66.83
68977;SHT31;56029;52.568;13.588;2023-09-08T09:28:53;24.63;66.29
68977;SHT31;56029;52.568;13.588;2023-09-08T09:31:22;24.69;65.85
68977;SHT31;56029;52.568;13.588;2023-09-08T09:33:48;24.75;65.71
68977;SHT31;56029;52.568;13.588;2023-09-08T09:36:26;24.82;66.33
68977;SHT31;56029;52.568;13.588;2023-09-08T09:38:51;24.84;65.18
68977;SHT31;56029;52.568;13.588;2023-09-08T09:41:17;24.81;66.32
68977;SHT31;56029;52.568;13.588;2023-09-08T09:43:42;24.94;66.52
68977;SHT31;56029;52.568;13.588;2023-09-08T09:46:08;24.99;65.52
68977;SHT31;56029;52.568;13.588;2023-09-08T09:48:34;24.98;65.79
68977;SHT31;56029;52.568;13.588;2023-09-08T09:51:15;25.11;64.88
68977;SHT31;56029;52.568;13.588;2023-09-08T09:53:41;25.15;64.66
68977;SHT31;56029;52.568;13.588;2023-09-08T09:56:09;25.25;63.74
68977;SHT31;56029;52.568;13.588;2023-09-08T09:58:35;25.32;62.46
68977;SHT31;56029;52.568;13.588;2023-09-08T10:01:02;25.35;63.51
68977;SHT31;56029;52.568;13.588;2023-09-08T10:03:28;25.39;63.55
68977;SHT31;56029;52.568;13.588;2023-09-08T10:05:54;25.40;63.61
68977;SHT31;56029;52.568;13.588;2023-09-08T10:08:20;25.43;62.42
68977;SHT31;56029;52.568;13.588;2023-09-08T10:10:46;25.49;62.98
68977;SHT31;56029;52.568;13.588;2023-09-08T10:13:26;25.51;62.22
68977;SHT31;56029;52.568;13.588;2023-09-08T10:15:57;25.53;62.97
68977;SHT31;56029;52.568;13.588;2023-09-08T10:18:26;25.60;62.99
68977;SHT31;56029;52.568;13.588;2023-09-08T10:20:53;25.67;62.80
68977;SHT31;56029;52.568;13.588;2023-09-08T10:23:33;25.80;61.78
68977;SHT31;56029;52.568;13.588;2023-09-08T10:26:02;25.73;60.68
68977;SHT31;56029;52.568;13.588;2023-09-08T10:28:28;25.94;62.35
68977;SHT31;56029;52.568;13.588;2023-09-08T10:30:55;25.92;62.84
68977;SHT31;56029;52.568;13.588;2023-09-08T10:33:21;26.01;61.82
68977;SHT31;56029;52.568;13.588;2023-09-08T10:35:49;26.09;60.98
68977;SHT31;56029;52.568;13.588;2023-09-08T10:38:21;26.15;61.14
68977;SHT31;56029;52.568;13.588;2023-09-08T10:40:47;26.18;61.00
68977;SHT31;56029;52.568;13.588;2023-09-08T10:43:12;26.20;61.71
68977;SHT31;56029;52.568;13.588;2023-09-08T10:45:39;26.24;61.75
68977;SHT31;56029;52.568;13.588;2023-09-08T10:48:05;26.29;60.55
68977;SHT31;56029;52.568;13.588;2023-09-08T10:50:35;26.22;60.57
68977;SHT31;56029;52.568;13.588;2023-09-08T10:53:19;26.24;59.95
68977;SHT31;56029;52.568;13.588;2023-09-08T10:55:49;26.29;61.90
68977;SHT31;56029;52.568;13.588;2023-09-08T10:58:19;26.33;61.40
68977;SHT31;56029;52.568;13.588;2023-09-08T11:00:47;26.39;59.45
68977;SHT31;56029;52.568;13.588;2023-09-08T11:03:13;26.46;60.63
68977;SHT31;56029;52.568;13.588;2023-09-08T11:05:39;26.42;60.46
68977;SHT31;56029;52.568;13.588;2023-09-08T11:08:05;26.48;60.22
68977;SHT31;56029;52.568;13.588;2023-09-08T11:10:32;26.52;61.08
68977;SHT31;56029;52.568;13.588;2023-09-08T11:12:57;26.53;59.76
68977;SHT31;56029;52.568;13.588;2023-09-08T11:15:23;26.59;59.91
68977;SHT31;56029;52.568;13.588;2023-09-08T11:17:49;26.60;60.53
68977;SHT31;56029;52.568;13.588;2023-09-08T11:20:14;26.59;59.52
68977;SHT31;56029;52.568;13.588;2023-09-08T11:22:40;26.64;60.21
68977;SHT31;56029;52.568;13.588;2023-09-08T11:25:07;26.59;58.71
68977;SHT31;56029;52.568;13.588;2023-09-08T11:27:33;26.63;59.11
68977;SHT31;56029;52.568;13.588;2023-09-08T11:29:59;26.66;58.42
68977;SHT31;56029;52.568;13.588;2023-09-08T11:32:25;26.72;57.45
68977;SHT31;56029;52.568;13.588;2023-09-08T11:35:09;26.78;58.09
68977;SHT31;56029;52.568;13.588;2023-09-08T11:37:39;26.70;57.65
68977;SHT31;56029;52.568;13.588;2023-09-08T11:40:07;26.75;59.81
68977;SHT31;56029;52.568;13.588;2023-09-08T11:42:33;26.86;57.98
68977;SHT31;56029;52.568;13.588;2023-09-08T11:44:58;26.90;57.34
68977;SHT31;56029;52.568;13.588;2023-09-08T11:47:24;26.96;57.78
68977;SHT31;56029;52.568;13.588;2023-09-08T11:49:52;27.00;59.17
68977;SHT31;56029;52.568;13.588;2023-09-08T11:52:22;26.99;58.18
68977;SHT31;56029;52.568;13.588;2023-09-08T11:54:48;27.00;58.41
68977;SHT31;56029;52.568;13.588;2023-09-08T11:57:15;27.17;57.91
68977;SHT31;56029;52.568;13.588;2023-09-08T11:59:40;27.01;56.36
68977;SHT31;56029;52.568;13.588;2023-09-08T12:02:06;27.08;56.32
68977;SHT31;56029;52.568;13.588;2023-09-08T12:04:35;27.14;58.50
68977;SHT31;56029;52.568;13.588;2023-09-08T12:07:01;27.17;56.61
68977;SHT31;56029;52.568;13.588;2023-09-08T12:09:26;27.15;56.54
68977;SHT31;56029;52.568;13.588;2023-09-08T12:11:52;27.14;58.39
68977;SHT31;56029;52.568;13.588;2023-09-08T12:14:18;27.20;58.05
68977;SHT31;56029;52.568;13.588;2023-09-08T12:16:44;27.27;56.95
68977;SHT31;56029;52.568;13.588;2023-09-08T12:19:44;27.34;58.24
68977;SHT31;56029;52.568;13.588;2023-09-08T12:22:10;27.41;56.77
68977;SHT31;56029;52.568;13.588;2023-09-08T12:24:49;27.44;54.84
68977;SHT31;56029;52.568;13.588;2023-09-08T12:27:16;27.45;55.83
68977;SHT31;56029;52.568;13.588;2023-09-08T12:29:55;27.54;56.44
68977;SHT31;56029;52.568;13.588;2023-09-08T12:32:22;27.52;54.96
68977;SHT31;56029;52.568;13.588;2023-09-08T12:34:48;27.58;56.62
68977;SHT31;56029;52.568;13.588;2023-09-08T12:37:14;27.66;56.69
68977;SHT31;56029;52.568;13.588;2023-09-08T12:39:39;27.63;56.56
68977;SHT31;56029;52.568;13.588;2023-09-08T12:42:05;27.48;55.30
68977;SHT31;56029;52.568;13.588;2023-09-08T12:44:31;27.48;57.62
68977;SHT31;56029;52.568;13.588;2023-09-08T12:46:56;27.59;57.34
68977;SHT31;56029;52.568;13.588;2023-09-08T12:49:22;27.65;59.62
68977;SHT31;56029;52.568;13.588;2023-09-08T12:51:48;27.69;57.93
68977;SHT31;56029;52.568;13.588;2023-09-08T12:54:14;27.72;57.91
68977;SHT31;56029;52.568;13.588;2023-09-08T12:56:39;27.62;56.92
68977;SHT31;56029;52.568;13.588;2023-09-08T12:59:05;27.63;57.53
68977;SHT31;56029;52.568;13.588;2023-09-08T13:01:30;27.66;56.52
68977;SHT31;56029;52.568;13.588;2023-09-08T13:03:56;27.81;55.93
68977;SHT31;56029;52.568;13.588;2023-09-08T13:06:21;27.86;55.95
68977;SHT31;56029;52.568;13.588;2023-09-08T13:08:47;27.92;55.18
68977;SHT31;56029;52.568;13.588;2023-09-08T13:11:12;27.97;56.84
68977;SHT31;56029;52.568;13.588;2023-09-08T13:13:38;27.93;57.09
68977;SHT31;56029;52.568;13.588;2023-09-08T13:16:04;27.86;55.78
68977;SHT31;56029;52.568;13.588;2023-09-08T13:18:29;27.82;56.05
68977;SHT31;56029;52.568;13.588;2023-09-08T13:20:55;27.76;56.13
68977;SHT31;56029;52.568;13.588;2023-09-08T13:23:21;27.85;56.45
68977;SHT31;56029;52.568;13.588;2023-09-08T13:25:46;27.89;55.89
68977;SHT31;56029;52.568;13.588;2023-09-08T13:28:12;28.00;55.65
68977;SHT31;56029;52.568;13.588;2023-09-08T13:30:37;28.07;55.56
68977;SHT31;56029;52.568;13.588;2023-09-08T13:33:03;28.07;54.87
68977;SHT31;56029;52.568;13.588;2023-09-08T13:35:29;28.06;55.32
68977;SHT31;56029;52.568;13.588;2023-09-08T13:37:54;28.12;56.42
68977;SHT31;56029;52.568;13.588;2023-09-08T13:40:20;27.92;52.99
68977;SHT31;56029;52.568;13.588;2023-09-08T13:42:46;28.02;54.86
68977;SHT31;56029;52.568;13.588;2023-09-08T13:45:11;28.07;54.71
68977;SHT31;56029;52.568;13.588;2023-09-08T13:47:37;28.07;52.99
68977;SHT31;56029;52.568;13.588;2023-09-08T13:50:02;28.10;52.76
68977;SHT31;56029;52.568;13.588;2023-09-08T13:52:28;28.07;54.16
68977;SHT31;56029;52.568;13.588;2023-09-08T13:54:53;28.10;54.68
68977;SHT31;56029;52.568;13.588;2023-09-08T13:57:19;28.12;52.25
68977;SHT31;56029;52.568;13.588;2023-09-08T13:59:45;28.13;52.21
68977;SHT31;56029;52.568;13.588;2023-09-08T14:02:10;28.17;52.01
68977;SHT31;56029;52.568;13.588;2023-09-08T14:04:36;28.14;52.73
68977;SHT31;56029;52.568;13.588;2023-09-08T14:07:01;28.14;53.12
68977;SHT31;56029;52.568;13.588;2023-09-08T14:09:27;28.21;55.22
68977;SHT31;56029;52.568;13.588;2023-09-08T14:11:53;28.21;53.72
68977;SHT31;56029;52.568;13.588;2023-09-08T14:14:20;28.23;55.16
68977;SHT31;56029;52.568;13.588;2023-09-08T14:16:46;28.24;53.24
68977;SHT31;56029;52.568;13.588;2023-09-08T14:19:11;28.26;53.24
68977;SHT31;56029;52.568;13.588;2023-09-08T14:21:37;28.26;52.49
68977;SHT31;56029;52.568;13.588;2023-09-08T14:24:03;28.26;52.24
68977;SHT31;56029;52.568;13.588;2023-09-08T14:26:28;28.21;52.00
68977;SHT31;56029;52.568;13.588;2023-09-08T14:28:54;28.27;52.76
68977;SHT31;56029;52.568;13.588;2023-09-08T14:31:20;28.24;52.74
68977;SHT31;56029;52.568;13.588;2023-09-08T14:33:47;28.21;54.15
68977;SHT31;56029;52.568;13.588;2023-09-08T14:36:19;28.21;52.81
68977;SHT31;56029;52.568;13.588;2023-09-08T14:38:45;28.14;52.98
68977;SHT31;56029;52.568;13.588;2023-09-08T14:41:10;28.16;53.39
68977;SHT31;56029;52.568;13.588;2023-09-08T14:43:38;28.16;53.10
68977;SHT31;56029;52.568;13.588;2023-09-08T14:46:04;28.13;52.89
68977;SHT31;56029;52.568;13.588;2023-09-08T14:48:29;28.13;51.91
68977;SHT31;56029;52.568;13.588;2023-09-08T14:50:56;28.14;52.60
68977;SHT31;56029;52.568;13.588;2023-09-08T14:53:22;28.14;51.65
68977;SHT31;56029;52.568;13.588;2023-09-08T14:55:48;28.13;52.93
68977;SHT31;56029;52.568;13.588;2023-09-08T14:58:15;28.14;52.30
68977;SHT31;56029;52.568;13.588;2023-09-08T15:00:41;28.17;53.61
68977;SHT31;56029;52.568;13.588;2023-09-08T15:03:07;28.16;52.04
68977;SHT31;56029;52.568;13.588;2023-09-08T15:05:35;28.12;51.98
68977;SHT31;56029;52.568;13.588;2023-09-08T15:08:01;28.07;51.51
68977;SHT31;56029;52.568;13.588;2023-09-08T15:10:27;28.13;51.59
68977;SHT31;56029;52.568;13.588;2023-09-08T15:12:53;28.09;52.58